sensor_id;sensor_type;location;lat;lon;timestamp;P1;durP1;ratioP1;P2;durP2;ratioP2
14013;SDS011;49110;52.584;13.408;2023-11-19T00:00:16;65.60;;;62.10;;
14013;SDS011;49110;52.584;13.408;2023-11-19T00:01:17;67.97;;;64.43;;
14013;SDS011;49110;52.584;13.408;2023-11-19T00:02:17;68.33;;;64.70;;
14013;SDS011;49110;52.584;13.408;2023-11-19T00:03:18;63.57;;;60.23;;
14013;SDS011;49110;52.584;13.408;2023-11-19T00:04:19;66.47;;;62.97;;
14013;SDS011;49110;52.584;13.408;2023-11-19T00:05:19;69.40;;;65.80;;
14013;SDS011;49110;52.584;13.408;2023-11-19T00:06:20;65.23;;;61.57;;
14013;SDS011;49110;52.584;13.408;2023-11-19T00:07:20;66.37;;;62.83;;
14013;SDS011;49110;52.584;13.408;2023-11-19T00:08:20;67.90;;;64.33;;
14013;SDS011;49110;52.584;13.408;2023-11-19T00:09:21;68.53;;;64.83;;
14013;SDS011;49110;52.584;13.408;2023-11-19T00:10:22;67.37;;;63.80;;
14013;SDS011;49110;52.584;13.408;2023-11-19T00:11:22;65.23;;;61.77;;
14013;SDS011;49110;52.584;13.408;2023-11-19T00:12:23;66.70;;;63.10;;
14013;SDS011;49110;52.584;13.408;2023-11-19T00:13:24;68.83;;;65.03;;
14013;SDS011;49110;52.584;13.408;2023-11-19T00:14:26;71.18;;;67.28;;
14013;SDS011;49110;52.584;13.408;2023-11-19T00:15:26;67.73;;;64.17;;
14013;SDS011;49110;52.584;13.408;2023-11-19T00:16:28;66.70;;;63.07;;
14013;SDS011;49110;52.584;13.408;2023-11-19T00:17:28;65.60;;;61.87;;
14013;SDS011;49110;52.584;13.408;2023-11-19T00:18:29;67.07;;;63.40;;
14013;SDS011;49110;52.584;13.408;2023-11-19T00:19:29;69.87;;;66.20;;
14013;SDS011;49110;52.584;13.408;2023-11-19T00:20:30;69.03;;;65.37;;
14013;SDS011;49110;52.584;13.408;2023-11-19T00:21:30;66.87;;;63.20;;
14013;SDS011;49110;52.584;13.408;2023-11-19T00:22:33;72.78;;;68.85;;
14013;SDS011;49110;52.584;13.408;2023-11-19T00:23:33;67.27;;;63.60;;
14013;SDS011;49110;52.584;13.408;2023-11-19T00:24:34;65.37;;;61.80;;
14013;SDS011;49110;52.584;13.408;2023-11-19T00:25:34;67.60;;;64.00;;
14013;SDS011;49110;52.584;13.408;2023-11-19T00:26:35;69.63;;;65.80;;
14013;SDS011;49110;52.584;13.408;2023-11-19T00:27:36;70.00;;;66.27;;
14013;SDS011;49110;52.584;13.408;2023-11-19T00:28:39;67.18;;;63.55;;
14013;SDS011;49110;52.584;13.408;2023-11-19T00:29:40;65.80;;;62.27;;
14013;SDS011;49110;52.584;13.408;2023-11-19T00:30:44;59.58;;;56.30;;
14013;SDS011;49110;52.584;13.408;2023-11-19T00:31:45;65.13;;;61.67;;
14013;SDS011;49110;52.584;13.408;2023-11-19T00:32:45;65.80;;;62.20;;
14013;SDS011;49110;52.584;13.408;2023-11-19T00:33:46;65.10;;;61.70;;
14013;SDS011;49110;52.584;13.408;2023-11-19T00:34:46;64.93;;;61.43;;
14013;SDS011;49110;52.584;13.408;2023-11-19T00:35:47;66.18;;;62.65;;
14013;SDS011;49110;52.584;13.408;2023-11-19T00:36:48;66.37;;;62.80;;
14013;SDS011;49110;52.584;13.408;2023-11-19T00:37:49;66.20;;;62.57;;
14013;SDS011;49110;52.584;13.408;2023-11-19T00:38:50;69.40;;;65.70;;
14013;SDS011;49110;52.584;13.408;2023-11-19T00:39:52;67.03;;;63.42;;
14013;SDS011;49110;52.584;13.408;2023-11-19T00:40:53;64.47;;;60.90;;
14013;SDS011;49110;52.584;13.408;2023-11-19T00:41:53;61.93;;;58.63;;
14013;SDS011;49110;52.584;13.408;2023-11-19T00:42:54;65.77;;;62.20;;
14013;SDS011;49110;52.584;13.408;2023-11-19T00:43:54;60.80;;;57.57;;
14013;SDS011;49110;52.584;13.408;2023-11-19T00:44:55;65.77;;;62.33;;
14013;SDS011;49110;52.584;13.408;2023-11-19T00:45:56;62.90;;;59.57;;
14013;SDS011;49110;52.584;13.408;2023-11-19T00:46:56;67.00;;;63.13;;
14013;SDS011;49110;52.584;13.408;2023-11-19T00:47:57;65.20;;;61.77;;
14013;SDS011;49110;52.584;13.408;2023-11-19T00:48:59;67.80;;;64.10;;
14013;SDS011;49110;52.584;13.408;2023-11-19T00:50:01;63.80;;;60.38;;
14013;SDS011;49110;52.584;13.408;2023-11-19T00:51:02;64.03;;;60.50;;
14013;SDS011;49110;52.584;13.408;2023-11-19T00:52:06;63.10;;;59.78;;
14013;SDS011;49110;52.584;13.408;2023-11-19T00:53:06;61.53;;;58.13;;
14013;SDS011;49110;52.584;13.408;2023-11-19T00:54:07;61.63;;;58.30;;
14013;SDS011;49110;52.584;13.408;2023-11-19T00:55:07;63.53;;;60.10;;
14013;SDS011;49110;52.584;13.408;2023-11-19T00:56:08;64.63;;;61.17;;
14013;SDS011;49110;52.584;13.408;2023-11-19T00:57:12;66.53;;;63.03;;
14013;SDS011;49110;52.584;13.408;2023-11-19T00:58:13;61.63;;;58.33;;
14013;SDS011;49110;52.584;13.408;2023-11-19T00:59:13;62.27;;;58.97;;
14013;SDS011;49110;52.584;13.408;2023-11-19T01:00:14;62.67;;;59.17;;
14013;SDS011;49110;52.584;13.408;2023-11-19T01:01:26;58.45;;;55.40;;
14013;SDS011;49110;52.584;13.408;2023-11-19T01:02:27;65.00;;;61.57;;
14013;SDS011;49110;52.584;13.408;2023-11-19T01:03:27;63.90;;;60.53;;
14013;SDS011;49110;52.584;13.408;2023-11-19T01:04:28;66.03;;;62.40;;
14013;SDS011;49110;52.584;13.408;2023-11-19T01:05:29;65.78;;;62.17;;
14013;SDS011;49110;52.584;13.408;2023-11-19T01:06:30;63.63;;;60.17;;
14013;SDS011;49110;52.584;13.408;2023-11-19T01:07:31;64.70;;;61.07;;
14013;SDS011;49110;52.584;13.408;2023-11-19T01:08:31;61.37;;;58.03;;
14013;SDS011;49110;52.584;13.408;2023-11-19T01:09:32;66.77;;;63.20;;
14013;SDS011;49110;52.584;13.408;2023-11-19T01:10:36;62.73;;;59.37;;
14013;SDS011;49110;52.584;13.408;2023-11-19T01:11:37;59.65;;;56.35;;
14013;SDS011;49110;52.584;13.408;2023-11-19T01:12:37;67.27;;;63.70;;
14013;SDS011;49110;52.584;13.408;2023-11-19T01:13:38;66.00;;;62.43;;
14013;SDS011;49110;52.584;13.408;2023-11-19T01:14:38;61.93;;;58.67;;
14013;SDS011;49110;52.584;13.408;2023-11-19T01:15:39;64.67;;;61.30;;
14013;SDS011;49110;52.584;13.408;2023-11-19T01:16:41;62.25;;;58.95;;
14013;SDS011;49110;52.584;13.408;2023-11-19T01:17:42;63.88;;;60.53;;
14013;SDS011;49110;52.584;13.408;2023-11-19T01:18:43;67.00;;;63.30;;
14013;SDS011;49110;52.584;13.408;2023-11-19T01:19:44;65.40;;;61.87;;
14013;SDS011;49110;52.584;13.408;2023-11-19T01:20:45;64.87;;;61.47;;
14013;SDS011;49110;52.584;13.408;2023-11-19T01:21:45;64.87;;;61.53;;
14013;SDS011;49110;52.584;13.408;2023-11-19T01:22:46;64.67;;;61.03;;
14013;SDS011;49110;52.584;13.408;2023-11-19T01:23:48;68.65;;;64.85;;
14013;SDS011;49110;52.584;13.408;2023-11-19T01:24:49;63.93;;;60.47;;
14013;SDS011;49110;52.584;13.408;2023-11-19T01:25:49;63.87;;;60.53;;
14013;SDS011;49110;52.584;13.408;2023-11-19T01:26:50;64.23;;;60.73;;
14013;SDS011;49110;52.584;13.408;2023-11-19T01:27:51;63.45;;;60.10;;
14013;SDS011;49110;52.584;13.408;2023-11-19T01:28:52;65.37;;;61.97;;
14013;SDS011;49110;52.584;13.408;2023-11-19T01:29:53;64.43;;;61.05;;
14013;SDS011;49110;52.584;13.408;2023-11-19T01:30:54;64.50;;;60.97;;
14013;SDS011;49110;52.584;13.408;2023-11-19T01:31:55;68.87;;;65.23;;
14013;SDS011;49110;52.584;13.408;2023-11-19T01:32:55;62.03;;;58.67;;
14013;SDS011;49110;52.584;13.408;2023-11-19T01:33:56;62.90;;;59.53;;
14013;SDS011;49110;52.584;13.408;2023-11-19T01:34:56;67.13;;;63.57;;
14013;SDS011;49110;52.584;13.408;2023-11-19T01:35:57;63.08;;;59.75;;
14013;SDS011;49110;52.584;13.408;2023-11-19T01:36:59;62.73;;;59.33;;
14013;SDS011;49110;52.584;13.408;2023-11-19T01:37:59;66.13;;;62.27;;
14013;SDS011;49110;52.584;13.408;2023-11-19T01:39:00;63.70;;;60.27;;
14013;SDS011;49110;52.584;13.408;2023-11-19T01:40:00;65.30;;;61.90;;
14013;SDS011;49110;52.584;13.408;2023-11-19T01:41:03;61.97;;;58.58;;
14013;SDS011;49110;52.584;13.408;2023-11-19T01:42:03;62.60;;;59.00;;
14013;SDS011;49110;52.584;13.408;2023-11-19T01:43:04;62.57;;;59.33;;
14013;SDS011;49110;52.584;13.408;2023-11-19T01:44:07;61.63;;;58.33;;
14013;SDS011;49110;52.584;13.408;2023-11-19T01:45:08;64.57;;;61.20;;
14013;SDS011;49110;52.584;13.408;2023-11-19T01:46:09;61.23;;;57.97;;
14013;SDS011;49110;52.584;13.408;2023-11-19T01:47:10;60.30;;;57.03;;
14013;SDS011;49110;52.584;13.408;2023-11-19T01:48:10;59.90;;;56.67;;
14013;SDS011;49110;52.584;13.408;2023-11-19T01:49:11;60.73;;;57.50;;
14013;SDS011;49110;52.584;13.408;2023-11-19T01:50:14;61.03;;;57.80;;
14013;SDS011;49110;52.584;13.408;2023-11-19T01:51:15;55.60;;;52.67;;
14013;SDS011;49110;52.584;13.408;2023-11-19T01:52:17;58.60;;;55.35;;
14013;SDS011;49110;52.584;13.408;2023-11-19T01:53:18;56.20;;;53.23;;
14013;SDS011;49110;52.584;13.408;2023-11-19T01:54:19;55.58;;;52.65;;
14013;SDS011;49110;52.584;13.408;2023-11-19T01:55:19;59.13;;;56.00;;
14013;SDS011;49110;52.584;13.408;2023-11-19T01:56:21;56.58;;;53.60;;
14013;SDS011;49110;52.584;13.408;2023-11-19T01:57:22;54.90;;;51.90;;
14013;SDS011;49110;52.584;13.408;2023-11-19T01:58:24;57.95;;;54.67;;
14013;SDS011;49110;52.584;13.408;2023-11-19T01:59:25;59.73;;;56.57;;
14013;SDS011;49110;52.584;13.408;2023-11-19T02:00:27;55.60;;;52.65;;
14013;SDS011;49110;52.584;13.408;2023-11-19T02:01:27;58.03;;;54.80;;
14013;SDS011;49110;52.584;13.408;2023-11-19T02:02:29;61.07;;;57.80;;
14013;SDS011;49110;52.584;13.408;2023-11-19T02:03:31;59.00;;;55.40;;
14013;SDS011;49110;52.584;13.408;2023-11-19T02:04:33;61.80;;;58.50;;
14013;SDS011;49110;52.584;13.408;2023-11-19T02:05:34;58.97;;;55.75;;
14013;SDS011;49110;52.584;13.408;2023-11-19T02:06:39;61.15;;;57.80;;
14013;SDS011;49110;52.584;13.408;2023-11-19T02:07:41;61.50;;;58.13;;
14013;SDS011;49110;52.584;13.408;2023-11-19T02:08:42;60.83;;;57.60;;
14013;SDS011;49110;52.584;13.408;2023-11-19T02:09:43;59.22;;;56.05;;
14013;SDS011;49110;52.584;13.408;2023-11-19T02:10:44;64.67;;;61.13;;
14013;SDS011;49110;52.584;13.408;2023-11-19T02:11:45;59.80;;;56.63;;
14013;SDS011;49110;52.584;13.408;2023-11-19T02:12:49;67.65;;;63.92;;
14013;SDS011;49110;52.584;13.408;2023-11-19T02:13:49;60.67;;;57.53;;
14013;SDS011;49110;52.584;13.408;2023-11-19T02:14:50;67.27;;;63.70;;
14013;SDS011;49110;52.584;13.408;2023-11-19T02:15:50;62.23;;;58.97;;
14013;SDS011;49110;52.584;13.408;2023-11-19T02:16:51;64.93;;;61.60;;
14013;SDS011;49110;52.584;13.408;2023-11-19T02:17:52;63.70;;;60.33;;
14013;SDS011;49110;52.584;13.408;2023-11-19T02:18:52;58.07;;;55.03;;
14013;SDS011;49110;52.584;13.408;2023-11-19T02:19:53;65.73;;;62.30;;
14013;SDS011;49110;52.584;13.408;2023-11-19T02:20:54;61.83;;;58.67;;
14013;SDS011;49110;52.584;13.408;2023-11-19T02:21:56;65.78;;;62.15;;
14013;SDS011;49110;52.584;13.408;2023-11-19T02:22:56;63.03;;;59.67;;
14013;SDS011;49110;52.584;13.408;2023-11-19T02:23:57;60.03;;;56.90;;
14013;SDS011;49110;52.584;13.408;2023-11-19T02:25:00;68.47;;;64.70;;
14013;SDS011;49110;52.584;13.408;2023-11-19T02:27:54;56.27;;;53.27;;
14013;SDS011;49110;52.584;13.408;2023-11-19T02:28:55;53.25;;;50.28;;
14013;SDS011;49110;52.584;13.408;2023-11-19T02:29:56;58.33;;;55.27;;
14013;SDS011;49110;52.584;13.408;2023-11-19T02:30:57;59.87;;;56.47;;
14013;SDS011;49110;52.584;13.408;2023-11-19T02:31:58;58.33;;;55.27;;
14013;SDS011;49110;52.584;13.408;2023-11-19T02:32:59;63.47;;;60.13;;
14013;SDS011;49110;52.584;13.408;2023-11-19T02:34:03;65.65;;;62.03;;
14013;SDS011;49110;52.584;13.408;2023-11-19T02:35:03;65.20;;;61.80;;
14013;SDS011;49110;52.584;13.408;2023-11-19T02:36:05;68.47;;;64.88;;
14013;SDS011;49110;52.584;13.408;2023-11-19T02:37:07;62.92;;;59.50;;
14013;SDS011;49110;52.584;13.408;2023-11-19T02:38:08;65.53;;;62.03;;
14013;SDS011;49110;52.584;13.408;2023-11-19T02:39:09;61.93;;;58.67;;
14013;SDS011;49110;52.584;13.408;2023-11-19T02:40:12;62.03;;;58.67;;
14013;SDS011;49110;52.584;13.408;2023-11-19T02:41:13;65.65;;;62.28;;
14013;SDS011;49110;52.584;13.408;2023-11-19T02:42:14;59.43;;;56.20;;
14013;SDS011;49110;52.584;13.408;2023-11-19T02:43:15;63.07;;;59.77;;
14013;SDS011;49110;52.584;13.408;2023-11-19T02:44:15;63.30;;;60.00;;
14013;SDS011;49110;52.584;13.408;2023-11-19T02:45:16;66.17;;;62.63;;
14013;SDS011;49110;52.584;13.408;2023-11-19T02:46:17;63.27;;;59.90;;
14013;SDS011;49110;52.584;13.408;2023-11-19T02:47:19;60.27;;;57.10;;
14013;SDS011;49110;52.584;13.408;2023-11-19T02:48:23;63.27;;;59.93;;
14013;SDS011;49110;52.584;13.408;2023-11-19T02:49:24;64.13;;;60.77;;
14013;SDS011;49110;52.584;13.408;2023-11-19T02:50:25;64.53;;;61.20;;
14013;SDS011;49110;52.584;13.408;2023-11-19T02:51:26;63.53;;;60.23;;
14013;SDS011;49110;52.584;13.408;2023-11-19T02:52:27;62.40;;;58.83;;
14013;SDS011;49110;52.584;13.408;2023-11-19T02:53:28;63.33;;;60.03;;
14013;SDS011;49110;52.584;13.408;2023-11-19T02:54:29;60.47;;;57.37;;
14013;SDS011;49110;52.584;13.408;2023-11-19T02:55:29;61.83;;;58.33;;
14013;SDS011;49110;52.584;13.408;2023-11-19T02:56:36;58.77;;;55.67;;
14013;SDS011;49110;52.584;13.408;2023-11-19T02:57:39;59.22;;;56.15;;
14013;SDS011;49110;52.584;13.408;2023-11-19T02:58:46;57.10;;;53.97;;
14013;SDS011;49110;52.584;13.408;2023-11-19T02:59:47;61.22;;;57.95;;
14013;SDS011;49110;52.584;13.408;2023-11-19T03:00:48;58.10;;;55.10;;
14013;SDS011;49110;52.584;13.408;2023-11-19T03:01:57;61.67;;;58.30;;
14013;SDS011;49110;52.584;13.408;2023-11-19T03:02:59;59.33;;;56.13;;
14013;SDS011;49110;52.584;13.408;2023-11-19T03:04:05;60.15;;;57.03;;
14013;SDS011;49110;52.584;13.408;2023-11-19T03:05:05;62.83;;;59.43;;
14013;SDS011;49110;52.584;13.408;2023-11-19T03:06:07;61.55;;;58.13;;
14013;SDS011;49110;52.584;13.408;2023-11-19T03:07:09;60.25;;;57.17;;
14013;SDS011;49110;52.584;13.408;2023-11-19T03:08:09;61.60;;;58.30;;
14013;SDS011;49110;52.584;13.408;2023-11-19T03:09:10;61.97;;;58.73;;
14013;SDS011;49110;52.584;13.408;2023-11-19T03:10:10;67.37;;;63.83;;
14013;SDS011;49110;52.584;13.408;2023-11-19T03:11:15;62.13;;;58.80;;
14013;SDS011;49110;52.584;13.408;2023-11-19T03:12:15;62.87;;;59.43;;
14013;SDS011;49110;52.584;13.408;2023-11-19T03:13:16;61.73;;;58.53;;
14013;SDS011;49110;52.584;13.408;2023-11-19T03:14:19;58.78;;;55.55;;
14013;SDS011;49110;52.584;13.408;2023-11-19T03:15:20;65.13;;;61.83;;
14013;SDS011;49110;52.584;13.408;2023-11-19T03:16:21;60.73;;;57.43;;
14013;SDS011;49110;52.584;13.408;2023-11-19T03:17:21;61.40;;;58.27;;
14013;SDS011;49110;52.584;13.408;2023-11-19T03:18:21;59.20;;;56.20;;
14013;SDS011;49110;52.584;13.408;2023-11-19T03:19:22;63.10;;;59.73;;
14013;SDS011;49110;52.584;13.408;2023-11-19T03:20:22;59.40;;;56.33;;
14013;SDS011;49110;52.584;13.408;2023-11-19T03:21:30;61.92;;;58.38;;
14013;SDS011;49110;52.584;13.408;2023-11-19T03:22:31;58.72;;;55.63;;
14013;SDS011;49110;52.584;13.408;2023-11-19T03:23:34;59.80;;;56.75;;
14013;SDS011;49110;52.584;13.408;2023-11-19T03:24:35;63.78;;;60.42;;
14013;SDS011;49110;52.584;13.408;2023-11-19T03:25:35;62.43;;;59.17;;
14013;SDS011;49110;52.584;13.408;2023-11-19T03:26:37;61.15;;;58.05;;
14013;SDS011;49110;52.584;13.408;2023-11-19T03:27:38;61.22;;;58.08;;
14013;SDS011;49110;52.584;13.408;2023-11-19T03:28:39;65.25;;;61.88;;
14013;SDS011;49110;52.584;13.408;2023-11-19T03:29:39;61.90;;;58.70;;
14013;SDS011;49110;52.584;13.408;2023-11-19T03:30:40;59.93;;;56.87;;
14013;SDS011;49110;52.584;13.408;2023-11-19T03:31:44;69.43;;;65.80;;
14013;SDS011;49110;52.584;13.408;2023-11-19T03:32:44;60.70;;;57.53;;
14013;SDS011;49110;52.584;13.408;2023-11-19T03:33:45;71.03;;;67.40;;
14013;SDS011;49110;52.584;13.408;2023-11-19T03:34:46;67.83;;;64.40;;
14013;SDS011;49110;52.584;13.408;2023-11-19T03:35:47;69.43;;;65.80;;
14013;SDS011;49110;52.584;13.408;2023-11-19T03:36:47;67.50;;;64.03;;
14013;SDS011;49110;52.584;13.408;2023-11-19T03:37:49;70.82;;;67.07;;
14013;SDS011;49110;52.584;13.408;2023-11-19T03:38:50;67.83;;;64.17;;
14013;SDS011;49110;52.584;13.408;2023-11-19T03:39:53;71.10;;;67.57;;
14013;SDS011;49110;52.584;13.408;2023-11-19T03:40:54;68.72;;;65.25;;
14013;SDS011;49110;52.584;13.408;2023-11-19T03:41:55;72.73;;;69.03;;
14013;SDS011;49110;52.584;13.408;2023-11-19T03:42:56;71.93;;;68.23;;
14013;SDS011;49110;52.584;13.408;2023-11-19T03:43:59;73.97;;;70.22;;
14013;SDS011;49110;52.584;13.408;2023-11-19T03:45:00;70.87;;;67.23;;
14013;SDS011;49110;52.584;13.408;2023-11-19T03:46:00;73.53;;;69.73;;
14013;SDS011;49110;52.584;13.408;2023-11-19T03:47:01;75.57;;;71.43;;
14013;SDS011;49110;52.584;13.408;2023-11-19T03:48:01;78.43;;;74.43;;
14013;SDS011;49110;52.584;13.408;2023-11-19T03:49:02;77.50;;;73.47;;
14013;SDS011;49110;52.584;13.408;2023-11-19T03:50:04;79.33;;;75.17;;
14013;SDS011;49110;52.584;13.408;2023-11-19T03:51:05;80.90;;;76.80;;
14013;SDS011;49110;52.584;13.408;2023-11-19T03:52:06;79.77;;;75.70;;
14013;SDS011;49110;52.584;13.408;2023-11-19T03:53:06;82.90;;;78.73;;
14013;SDS011;49110;52.584;13.408;2023-11-19T03:54:07;84.57;;;80.17;;
14013;SDS011;49110;52.584;13.408;2023-11-19T03:55:07;89.57;;;85.03;;
14013;SDS011;49110;52.584;13.408;2023-11-19T03:56:08;88.37;;;83.83;;
14013;SDS011;49110;52.584;13.408;2023-11-19T03:57:12;87.30;;;82.87;;
14013;SDS011;49110;52.584;13.408;2023-11-19T03:58:13;87.13;;;82.60;;
14013;SDS011;49110;52.584;13.408;2023-11-19T03:59:14;82.27;;;78.03;;
14013;SDS011;49110;52.584;13.408;2023-11-19T04:00:15;90.95;;;86.32;;
14013;SDS011;49110;52.584;13.408;2023-11-19T04:01:15;93.67;;;88.87;;
14013;SDS011;49110;52.584;13.408;2023-11-19T04:02:16;97.40;;;92.43;;
14013;SDS011;49110;52.584;13.408;2023-11-19T04:03:17;99.40;;;94.33;;
14013;SDS011;49110;52.584;13.408;2023-11-19T04:04:19;103.20;;;97.97;;
14013;SDS011;49110;52.584;13.408;2023-11-19T04:05:20;100.53;;;95.13;;
14013;SDS011;49110;52.584;13.408;2023-11-19T04:06:20;102.10;;;96.80;;
14013;SDS011;49110;52.584;13.408;2023-11-19T04:07:21;103.10;;;97.80;;
14013;SDS011;49110;52.584;13.408;2023-11-19T04:08:21;100.37;;;95.23;;
14013;SDS011;49110;52.584;13.408;2023-11-19T04:09:22;101.03;;;95.90;;
14013;SDS011;49110;52.584;13.408;2023-11-19T04:10:23;101.63;;;96.30;;
14013;SDS011;49110;52.584;13.408;2023-11-19T04:11:23;101.30;;;96.10;;
14013;SDS011;49110;52.584;13.408;2023-11-19T04:12:24;102.60;;;97.37;;
14013;SDS011;49110;52.584;13.408;2023-11-19T04:13:24;100.37;;;95.13;;
14013;SDS011;49110;52.584;13.408;2023-11-19T04:14:25;108.83;;;103.30;;
14013;SDS011;49110;52.584;13.408;2023-11-19T04:15:26;107.33;;;101.77;;
14013;SDS011;49110;52.584;13.408;2023-11-19T04:16:27;113.63;;;107.80;;
14013;SDS011;49110;52.584;13.408;2023-11-19T04:17:28;114.33;;;108.47;;
14013;SDS011;49110;52.584;13.408;2023-11-19T04:18:29;108.47;;;102.83;;
14013;SDS011;49110;52.584;13.408;2023-11-19T04:19:29;110.63;;;104.83;;
14013;SDS011;49110;52.584;13.408;2023-11-19T04:20:32;103.40;;;98.00;;
14013;SDS011;49110;52.584;13.408;2023-11-19T04:21:33;109.00;;;103.37;;
14013;SDS011;49110;52.584;13.408;2023-11-19T04:22:34;105.57;;;100.00;;
14013;SDS011;49110;52.584;13.408;2023-11-19T04:23:34;107.30;;;101.77;;
14013;SDS011;49110;52.584;13.408;2023-11-19T04:24:35;113.60;;;107.80;;
14013;SDS011;49110;52.584;13.408;2023-11-19T04:25:35;111.20;;;105.50;;
14013;SDS011;49110;52.584;13.408;2023-11-19T04:26:36;107.83;;;102.27;;
14013;SDS011;49110;52.584;13.408;2023-11-19T04:27:41;107.05;;;101.57;;
14013;SDS011;49110;52.584;13.408;2023-11-19T04:28:42;105.07;;;99.63;;
14013;SDS011;49110;52.584;13.408;2023-11-19T04:29:42;111.77;;;106.03;;
14013;SDS011;49110;52.584;13.408;2023-11-19T04:30:43;105.10;;;99.60;;
14013;SDS011;49110;52.584;13.408;2023-11-19T04:31:44;106.27;;;100.83;;
14013;SDS011;49110;52.584;13.408;2023-11-19T04:32:45;106.22;;;100.90;;
14013;SDS011;49110;52.584;13.408;2023-11-19T04:33:46;104.23;;;99.00;;
14013;SDS011;49110;52.584;13.408;2023-11-19T04:34:47;103.63;;;98.47;;
14013;SDS011;49110;52.584;13.408;2023-11-19T04:35:47;100.10;;;94.87;;
14013;SDS011;49110;52.584;13.408;2023-11-19T04:36:48;100.30;;;95.00;;
14013;SDS011;49110;52.584;13.408;2023-11-19T04:37:49;100.43;;;95.38;;
14013;SDS011;49110;52.584;13.408;2023-11-19T04:38:49;102.10;;;96.87;;
14013;SDS011;49110;52.584;13.408;2023-11-19T04:39:50;98.93;;;93.93;;
14013;SDS011;49110;52.584;13.408;2023-11-19T04:40:51;109.07;;;103.50;;
14013;SDS011;49110;52.584;13.408;2023-11-19T04:41:51;112.23;;;106.53;;
14013;SDS011;49110;52.584;13.408;2023-11-19T04:42:53;105.07;;;99.88;;
14013;SDS011;49110;52.584;13.408;2023-11-19T04:43:53;109.33;;;103.77;;
14013;SDS011;49110;52.584;13.408;2023-11-19T04:44:54;108.53;;;103.07;;
14013;SDS011;49110;52.584;13.408;2023-11-19T04:45:54;104.93;;;99.43;;
14013;SDS011;49110;52.584;13.408;2023-11-19T04:46:55;101.07;;;95.83;;
14013;SDS011;49110;52.584;13.408;2023-11-19T04:47:55;104.00;;;98.50;;
14013;SDS011;49110;52.584;13.408;2023-11-19T04:48:56;101.83;;;96.63;;
14013;SDS011;49110;52.584;13.408;2023-11-19T04:49:57;104.30;;;99.00;;
14013;SDS011;49110;52.584;13.408;2023-11-19T04:50:57;105.97;;;100.57;;
14013;SDS011;49110;52.584;13.408;2023-11-19T04:51:58;105.30;;;100.00;;
14013;SDS011;49110;52.584;13.408;2023-11-19T04:52:59;103.43;;;98.13;;
14013;SDS011;49110;52.584;13.408;2023-11-19T04:53:59;108.13;;;102.50;;
14013;SDS011;49110;52.584;13.408;2023-11-19T04:55:00;108.07;;;102.47;;
14013;SDS011;49110;52.584;13.408;2023-11-19T04:56:00;106.03;;;100.47;;
14013;SDS011;49110;52.584;13.408;2023-11-19T04:57:01;106.47;;;101.07;;
14013;SDS011;49110;52.584;13.408;2023-11-19T04:58:01;106.13;;;100.70;;
14013;SDS011;49110;52.584;13.408;2023-11-19T04:59:02;105.47;;;100.13;;
14013;SDS011;49110;52.584;13.408;2023-11-19T05:00:03;102.20;;;96.90;;
14013;SDS011;49110;52.584;13.408;2023-11-19T05:01:05;107.35;;;101.68;;
14013;SDS011;49110;52.584;13.408;2023-11-19T05:02:05;108.57;;;102.97;;
14013;SDS011;49110;52.584;13.408;2023-11-19T05:03:06;103.07;;;97.77;;
14013;SDS011;49110;52.584;13.408;2023-11-19T05:04:07;107.03;;;101.63;;
14013;SDS011;49110;52.584;13.408;2023-11-19T05:05:07;106.47;;;101.03;;
14013;SDS011;49110;52.584;13.408;2023-11-19T05:06:09;108.57;;;103.13;;
14013;SDS011;49110;52.584;13.408;2023-11-19T05:07:09;107.30;;;101.80;;
14013;SDS011;49110;52.584;13.408;2023-11-19T05:08:10;105.13;;;99.63;;
14013;SDS011;49110;52.584;13.408;2023-11-19T05:09:11;99.85;;;94.70;;
14013;SDS011;49110;52.584;13.408;2023-11-19T05:10:13;103.50;;;98.20;;
14013;SDS011;49110;52.584;13.408;2023-11-19T05:11:14;107.30;;;101.90;;
14013;SDS011;49110;52.584;13.408;2023-11-19T05:12:18;102.68;;;97.53;;
14013;SDS011;49110;52.584;13.408;2023-11-19T05:13:18;101.47;;;96.37;;
14013;SDS011;49110;52.584;13.408;2023-11-19T05:14:19;104.37;;;99.07;;
14013;SDS011;49110;52.584;13.408;2023-11-19T05:15:20;97.30;;;92.40;;
14013;SDS011;49110;52.584;13.408;2023-11-19T05:16:20;105.67;;;100.37;;
14013;SDS011;49110;52.584;13.408;2023-11-19T05:17:21;105.30;;;99.97;;
14013;SDS011;49110;52.584;13.408;2023-11-19T05:18:21;103.23;;;97.77;;
14013;SDS011;49110;52.584;13.408;2023-11-19T05:19:22;104.93;;;99.53;;
14013;SDS011;49110;52.584;13.408;2023-11-19T05:20:22;102.40;;;97.20;;
14013;SDS011;49110;52.584;13.408;2023-11-19T05:21:23;105.53;;;100.17;;
14013;SDS011;49110;52.584;13.408;2023-11-19T05:22:24;97.83;;;92.87;;
14013;SDS011;49110;52.584;13.408;2023-11-19T05:23:24;101.50;;;96.43;;
14013;SDS011;49110;52.584;13.408;2023-11-19T05:24:24;103.00;;;97.77;;
14013;SDS011;49110;52.584;13.408;2023-11-19T05:25:25;100.07;;;95.03;;
14013;SDS011;49110;52.584;13.408;2023-11-19T05:26:26;93.45;;;88.65;;
14013;SDS011;49110;52.584;13.408;2023-11-19T05:27:27;99.87;;;94.77;;
14013;SDS011;49110;52.584;13.408;2023-11-19T05:28:28;99.18;;;94.18;;
14013;SDS011;49110;52.584;13.408;2023-11-19T05:29:29;93.63;;;88.87;;
14013;SDS011;49110;52.584;13.408;2023-11-19T05:30:29;102.40;;;97.20;;
14013;SDS011;49110;52.584;13.408;2023-11-19T05:31:30;101.50;;;96.33;;
14013;SDS011;49110;52.584;13.408;2023-11-19T05:32:30;98.73;;;93.77;;
14013;SDS011;49110;52.584;13.408;2023-11-19T05:33:31;97.47;;;92.57;;
14013;SDS011;49110;52.584;13.408;2023-11-19T05:34:31;98.70;;;93.77;;
14013;SDS011;49110;52.584;13.408;2023-11-19T05:35:32;90.63;;;86.03;;
14013;SDS011;49110;52.584;13.408;2023-11-19T05:36:32;102.00;;;96.80;;
14013;SDS011;49110;52.584;13.408;2023-11-19T05:37:33;96.67;;;91.77;;
14013;SDS011;49110;52.584;13.408;2023-11-19T05:38:35;102.18;;;97.00;;
14013;SDS011;49110;52.584;13.408;2023-11-19T05:39:36;107.30;;;101.88;;
14013;SDS011;49110;52.584;13.408;2023-11-19T05:40:37;108.33;;;102.83;;
14013;SDS011;49110;52.584;13.408;2023-11-19T05:41:38;97.45;;;92.60;;
14013;SDS011;49110;52.584;13.408;2023-11-19T05:42:39;103.63;;;98.33;;
14013;SDS011;49110;52.584;13.408;2023-11-19T05:43:40;98.75;;;93.68;;
14013;SDS011;49110;52.584;13.408;2023-11-19T05:44:41;103.43;;;98.27;;
14013;SDS011;49110;52.584;13.408;2023-11-19T05:45:41;100.03;;;95.03;;
14013;SDS011;49110;52.584;13.408;2023-11-19T05:46:42;100.70;;;95.63;;
14013;SDS011;49110;52.584;13.408;2023-11-19T05:47:43;103.37;;;98.17;;
14013;SDS011;49110;52.584;13.408;2023-11-19T05:48:43;93.97;;;89.27;;
14013;SDS011;49110;52.584;13.408;2023-11-19T05:49:46;96.22;;;91.38;;
14013;SDS011;49110;52.584;13.408;2023-11-19T05:50:47;99.57;;;94.60;;
14013;SDS011;49110;52.584;13.408;2023-11-19T05:51:49;98.72;;;93.72;;